sensor_id;sensor_type;location;lat;lon;timestamp;pressure;altitude;pressure_sealevel;temperature;humidity
20909;BME280;10614;53.198;6.570;2023-04-26T00:01:31;101825.47;;;4.88;88.96
20909;BME280;10614;53.198;6.570;2023-04-26T00:03:34;101826.34;;;4.85;88.73
20909;BME280;10614;53.198;6.570;2023-04-26T00:05:36;101822.00;;;4.86;89.17
20909;BME280;10614;53.198;6.570;2023-04-26T00:07:38;101817.66;;;4.85;89.44
20909;BME280;10614;53.198;6.570;2023-04-26T00:09:39;101825.47;;;4.79;89.35
20909;BME280;10614;53.198;6.570;2023-04-26T00:11:43;101815.94;;;4.78;90.33
20909;BME280;10614;53.198;6.570;2023-04-26T00:13:46;101816.78;;;4.77;89.80
20909;BME280;10614;53.198;6.570;2023-04-26T00:15:50;101821.13;;;4.75;90.61
20909;BME280;10614;53.198;6.570;2023-04-26T00:17:51;101815.06;;;4.74;91.05
20909;BME280;10614;53.198;6.570;2023-04-26T00:19:53;101818.53;;;4.75;90.99
20909;BME280;10614;53.198;6.570;2023-04-26T00:21:56;101814.19;;;4.72;90.35
20909;BME280;10614;53.198;6.570;2023-04-26T00:23:58;101817.66;;;4.73;92.02
20909;BME280;10614;53.198;6.570;2023-04-26T00:25:59;101812.47;;;4.76;91.70
20909;BME280;10614;53.198;6.570;2023-04-26T00:28:01;101818.53;;;4.78;90.87
20909;BME280;10614;53.198;6.570;2023-04-26T00:30:05;101817.66;;;4.79;91.17
20909;BME280;10614;53.198;6.570;2023-04-26T00:32:08;101816.78;;;4.80;91.07
20909;BME280;10614;53.198;6.570;2023-04-26T00:34:09;101815.06;;;4.80;91.54
20909;BME280;10614;53.198;6.570;2023-04-26T00:36:11;101813.31;;;4.76;91.85
20909;BME280;10614;53.198;6.570;2023-04-26T00:38:13;101809.84;;;4.76;92.87
20909;BME280;10614;53.198;6.570;2023-04-26T00:40:15;101816.78;;;4.74;92.11
20909;BME280;10614;53.198;6.570;2023-04-26T00:42:16;101828.09;;;4.73;93.40
20909;BME280;10614;53.198;6.570;2023-04-26T00:44:18;101815.94;;;4.73;92.83
20909;BME280;10614;53.198;6.570;2023-04-26T00:46:21;101820.28;;;4.74;93.61
20909;BME280;10614;53.198;6.570;2023-04-26T00:48:23;101831.56;;;4.76;93.33
20909;BME280;10614;53.198;6.570;2023-04-26T00:50:25;101820.28;;;4.76;92.91
20909;BME280;10614;53.198;6.570;2023-04-26T00:52:26;101821.16;;;4.76;93.24
20909;BME280;10614;53.198;6.570;2023-04-26T00:54:28;101818.53;;;4.76;93.50
20909;BME280;10614;53.198;6.570;2023-04-26T00:56:30;101820.28;;;4.79;94.13
20909;BME280;10614;53.198;6.570;2023-04-26T00:58:32;101815.06;;;4.80;93.37
20909;BME280;10614;53.198;6.570;2023-04-26T01:00:33;101816.78;;;4.81;93.49
20909;BME280;10614;53.198;6.570;2023-04-26T01:02:37;101822.88;;;4.82;94.46
20909;BME280;10614;53.198;6.570;2023-04-26T01:04:38;101814.16;;;4.80;93.53
20909;BME280;10614;53.198;6.570;2023-04-26T01:06:41;101811.56;;;4.77;94.37
20909;BME280;10614;53.198;6.570;2023-04-26T01:08:42;101814.19;;;4.74;94.77
20909;BME280;10614;53.198;6.570;2023-04-26T01:10:44;101808.97;;;4.71;95.05
20909;BME280;10614;53.198;6.570;2023-04-26T01:12:46;101808.13;;;4.69;95.19
20909;BME280;10614;53.198;6.570;2023-04-26T01:14:48;101807.22;;;4.63;94.92
20909;BME280;10614;53.198;6.570;2023-04-26T01:16:49;101801.16;;;4.60;94.58
20909;BME280;10614;53.198;6.570;2023-04-26T01:18:52;101811.59;;;4.60;95.68
20909;BME280;10614;53.198;6.570;2023-04-26T01:20:54;101817.69;;;4.59;95.38
20909;BME280;10614;53.198;6.570;2023-04-26T01:22:57;101820.25;;;4.56;95.40
20909;BME280;10614;53.198;6.570;2023-04-26T01:24:59;101817.66;;;4.53;95.76
20909;BME280;10614;53.198;6.570;2023-04-26T01:27:01;101823.72;;;4.52;96.27
20909;BME280;10614;53.198;6.570;2023-04-26T01:29:11;101820.28;;;4.50;96.06
20909;BME280;10614;53.198;6.570;2023-04-26T01:31:13;101817.66;;;4.48;96.01
20909;BME280;10614;53.198;6.570;2023-04-26T01:33:15;101821.97;;;4.44;96.27
20909;BME280;10614;53.198;6.570;2023-04-26T01:35:17;101825.47;;;4.42;97.36
20909;BME280;10614;53.198;6.570;2023-04-26T01:37:18;101829.81;;;4.37;97.21
20909;BME280;10614;53.198;6.570;2023-04-26T01:39:22;101835.88;;;4.33;97.11
20909;BME280;10614;53.198;6.570;2023-04-26T01:41:24;101829.78;;;4.28;98.25
20909;BME280;10614;53.198;6.570;2023-04-26T01:43:25;101827.19;;;4.28;97.43
20909;BME280;10614;53.198;6.570;2023-04-26T01:45:29;101831.53;;;4.29;97.67
20909;BME280;10614;53.198;6.570;2023-04-26T01:47:31;101828.94;;;4.29;98.36
20909;BME280;10614;53.198;6.570;2023-04-26T01:49:32;101822.84;;;4.31;98.13
20909;BME280;10614;53.198;6.570;2023-04-26T01:51:36;101828.94;;;4.32;98.57
20909;BME280;10614;53.198;6.570;2023-04-26T01:53:37;101824.59;;;4.32;98.75
20909;BME280;10614;53.198;6.570;2023-04-26T01:55:40;101821.97;;;4.31;97.76
20909;BME280;10614;53.198;6.570;2023-04-26T01:57:42;101818.50;;;4.30;98.89
20909;BME280;10614;53.198;6.570;2023-04-26T01:59:44;101821.97;;;4.31;99.09
20909;BME280;10614;53.198;6.570;2023-04-26T02:01:45;101818.50;;;4.29;99.31
20909;BME280;10614;53.198;6.570;2023-04-26T02:03:47;101823.72;;;4.29;99.08
20909;BME280;10614;53.198;6.570;2023-04-26T02:05:50;101821.13;;;4.29;99.61
20909;BME280;10614;53.198;6.570;2023-04-26T02:07:52;101827.19;;;4.26;99.91
20909;BME280;10614;53.198;6.570;2023-04-26T02:09:53;101830.63;;;4.23;99.16
20909;BME280;10614;53.198;6.570;2023-04-26T02:11:56;101821.97;;;4.20;100.00
20909;BME280;10614;53.198;6.570;2023-04-26T02:13:57;101817.59;;;4.19;99.54
20909;BME280;10614;53.198;6.570;2023-04-26T02:15:59;101814.16;;;4.17;100.00
20909;BME280;10614;53.198;6.570;2023-04-26T02:18:00;101807.16;;;4.14;100.00
20909;BME280;10614;53.198;6.570;2023-04-26T02:20:02;101816.75;;;4.15;100.00
20909;BME280;10614;53.198;6.570;2023-04-26T02:22:04;101821.09;;;4.15;100.00
20909;BME280;10614;53.198;6.570;2023-04-26T02:24:07;101815.00;;;4.16;100.00
20909;BME280;10614;53.198;6.570;2023-04-26T02:26:08;101814.13;;;4.15;99.67
20909;BME280;10614;53.198;6.570;2023-04-26T02:28:12;101808.91;;;4.14;100.00
20909;BME280;10614;53.198;6.570;2023-04-26T02:30:16;101811.50;;;4.14;100.00
20909;BME280;10614;53.198;6.570;2023-04-26T02:32:17;101815.88;;;4.13;99.55
20909;BME280;10614;53.198;6.570;2023-04-26T02:34:20;101815.84;;;4.12;99.56
20909;BME280;10614;53.198;6.570;2023-04-26T02:36:21;101811.53;;;4.08;100.00
20909;BME280;10614;53.198;6.570;2023-04-26T02:38:23;101808.03;;;4.07;100.00
20909;BME280;10614;53.198;6.570;2023-04-26T02:40:25;101813.22;;;4.07;99.53
20909;BME280;10614;53.198;6.570;2023-04-26T02:42:26;101814.13;;;4.06;100.00
20909;BME280;10614;53.198;6.570;2023-04-26T02:44:29;101823.63;;;4.02;99.93
20909;BME280;10614;53.198;6.570;2023-04-26T02:46:31;101819.28;;;4.00;100.00
20909;BME280;10614;53.198;6.570;2023-04-26T02:48:35;101814.97;;;3.99;100.00
20909;BME280;10614;53.198;6.570;2023-04-26T02:50:38;101826.25;;;3.96;100.00
20909;BME280;10614;53.198;6.570;2023-04-26T02:52:39;101814.97;;;3.96;100.00
20909;BME280;10614;53.198;6.570;2023-04-26T02:54:41;101818.41;;;3.95;100.00
20909;BME280;10614;53.198;6.570;2023-04-26T02:56:42;101809.72;;;3.93;100.00
20909;BME280;10614;53.198;6.570;2023-04-26T02:58:44;101810.59;;;3.92;100.00
20909;BME280;10614;53.198;6.570;2023-04-26T03:00:47;101802.78;;;3.89;100.00
20909;BME280;10614;53.198;6.570;2023-04-26T03:02:49;101809.72;;;3.88;100.00
20909;BME280;10614;53.198;6.570;2023-04-26T03:04:51;101814.06;;;3.92;100.00
20909;BME280;10614;53.198;6.570;2023-04-26T03:06:52;101811.44;;;3.91;100.00
20909;BME280;10614;53.198;6.570;2023-04-26T03:08:54;101815.78;;;3.90;100.00
20909;BME280;10614;53.198;6.570;2023-04-26T03:10:55;101810.63;;;3.93;100.00
20909;BME280;10614;53.198;6.570;2023-04-26T03:12:57;101810.59;;;3.95;100.00
20909;BME280;10614;53.198;6.570;2023-04-26T03:14:59;101813.22;;;3.92;100.00
20909;BME280;10614;53.198;6.570;2023-04-26T03:17:05;101807.13;;;3.91;100.00
20909;BME280;10614;53.198;6.570;2023-04-26T03:19:07;101804.50;;;3.88;100.00
20909;BME280;10614;53.198;6.570;2023-04-26T03:21:09;101805.41;;;3.89;100.00
20909;BME280;10614;53.198;6.570;2023-04-26T03:23:11;101811.47;;;3.89;100.00
20909;BME280;10614;53.198;6.570;2023-04-26T03:25:12;101814.06;;;3.89;100.00
20909;BME280;10614;53.198;6.570;2023-04-26T03:27:15;101814.06;;;3.92;100.00
20909;BME280;10614;53.198;6.570;2023-04-26T03:29:16;101815.81;;;3.92;100.00
20909;BME280;10614;53.198;6.570;2023-04-26T03:31:18;101815.81;;;3.92;100.00
20909;BME280;10614;53.198;6.570;2023-04-26T03:33:22;101804.53;;;3.91;100.00
20909;BME280;10614;53.198;6.570;2023-04-26T03:35:24;101814.06;;;3.91;100.00
20909;BME280;10614;53.198;6.570;2023-04-26T03:37:25;101808.00;;;3.93;100.00
20909;BME280;10614;53.198;6.570;2023-04-26T03:39:27;101808.84;;;3.92;100.00
20909;BME280;10614;53.198;6.570;2023-04-26T03:41:28;101812.34;;;3.94;100.00
20909;BME280;10614;53.198;6.570;2023-04-26T03:43:30;101800.19;;;3.93;100.00
20909;BME280;10614;53.198;6.570;2023-04-26T03:45:32;101801.06;;;3.94;100.00
20909;BME280;10614;53.198;6.570;2023-04-26T03:47:33;101796.72;;;3.96;100.00
20909;BME280;10614;53.198;6.570;2023-04-26T03:49:37;101799.34;;;3.99;100.00
20909;BME280;10614;53.198;6.570;2023-04-26T03:51:38;101791.50;;;3.99;100.00
20909;BME280;10614;53.198;6.570;2023-04-26T03:53:40;101792.41;;;4.01;100.00
20909;BME280;10614;53.198;6.570;2023-04-26T03:55:42;101801.09;;;4.03;100.00
20909;BME280;10614;53.198;6.570;2023-04-26T03:57:44;101803.66;;;4.00;100.00
20909;BME280;10614;53.198;6.570;2023-04-26T03:59:45;101808.00;;;3.98;100.00
20909;BME280;10614;53.198;6.570;2023-04-26T04:01:47;101807.16;;;3.99;100.00
20909;BME280;10614;53.198;6.570;2023-04-26T04:03:49;101801.06;;;3.97;100.00
20909;BME280;10614;53.198;6.570;2023-04-26T04:05:52;101812.34;;;3.99;100.00
20909;BME280;10614;53.198;6.570;2023-04-26T04:07:53;101821.06;;;4.01;100.00
20909;BME280;10614;53.198;6.570;2023-04-26T04:09:55;101824.53;;;4.03;100.00
20909;BME280;10614;53.198;6.570;2023-04-26T04:11:57;101828.00;;;4.02;100.00
20909;BME280;10614;53.198;6.570;2023-04-26T04:14:00;101834.94;;;4.00;100.00
20909;BME280;10614;53.198;6.570;2023-04-26T04:16:02;101828.84;;;3.96;100.00
20909;BME280;10614;53.198;6.570;2023-04-26T04:18:05;101816.69;;;3.97;100.00
20909;BME280;10614;53.198;6.570;2023-04-26T04:20:07;101834.94;;;4.01;100.00
20909;BME280;10614;53.198;6.570;2023-04-26T04:22:10;101835.81;;;4.00;100.00
20909;BME280;10614;53.198;6.570;2023-04-26T04:24:12;101823.63;;;3.98;100.00
20909;BME280;10614;53.198;6.570;2023-04-26T04:26:14;101842.75;;;3.98;100.00
20909;BME280;10614;53.198;6.570;2023-04-26T04:28:16;101842.72;;;3.92;100.00
20909;BME280;10614;53.198;6.570;2023-04-26T04:30:18;101838.34;;;3.88;100.00
20909;BME280;10614;53.198;6.570;2023-04-26T04:32:20;101830.53;;;3.88;100.00
20909;BME280;10614;53.198;6.570;2023-04-26T04:34:22;101823.59;;;3.87;100.00
20909;BME280;10614;53.198;6.570;2023-04-26T04:36:24;101811.44;;;3.88;100.00
20909;BME280;10614;53.198;6.570;2023-04-26T04:38:27;101815.81;;;3.92;100.00
20909;BME280;10614;53.198;6.570;2023-04-26T04:40:29;101812.31;;;3.93;100.00
20909;BME280;10614;53.198;6.570;2023-04-26T04:42:31;101804.53;;;3.94;100.00
20909;BME280;10614;53.198;6.570;2023-04-26T04:44:34;101808.00;;;3.96;100.00
20909;BME280;10614;53.198;6.570;2023-04-26T04:46:36;101814.97;;;3.99;100.00
20909;BME280;10614;53.198;6.570;2023-04-26T04:48:37;101810.63;;;3.99;100.00
20909;BME280;10614;53.198;6.570;2023-04-26T04:50:39;101809.75;;;4.02;100.00
20909;BME280;10614;53.198;6.570;2023-04-26T04:52:41;101815.84;;;4.06;100.00
20909;BME280;10614;53.198;6.570;2023-04-26T04:54:44;101816.72;;;4.08;100.00
20909;BME280;10614;53.198;6.570;2023-04-26T04:56:45;101816.72;;;4.09;100.00
20909;BME280;10614;53.198;6.570;2023-04-26T04:58:47;101819.34;;;4.11;100.00
20909;BME280;10614;53.198;6.570;2023-04-26T05:00:49;101822.81;;;4.13;100.00
20909;BME280;10614;53.198;6.570;2023-04-26T05:02:53;101824.53;;;4.14;100.00
20909;BME280;10614;53.198;6.570;2023-04-26T05:04:55;101829.75;;;4.14;100.00
20909;BME280;10614;53.198;6.570;2023-04-26T05:06:56;101829.78;;;4.15;100.00
20909;BME280;10614;53.198;6.570;2023-04-26T05:08:58;101827.16;;;4.15;100.00
20909;BME280;10614;53.198;6.570;2023-04-26T05:11:01;101821.06;;;4.16;100.00
20909;BME280;10614;53.198;6.570;2023-04-26T05:13:03;101821.06;;;4.16;100.00
20909;BME280;10614;53.198;6.570;2023-04-26T05:15:05;101826.28;;;4.16;100.00
20909;BME280;10614;53.198;6.570;2023-04-26T05:17:07;101825.44;;;4.17;100.00
20909;BME280;10614;53.198;6.570;2023-04-26T05:19:09;101823.69;;;4.18;100.00
20909;BME280;10614;53.198;6.570;2023-04-26T05:21:12;101832.38;;;4.17;100.00
20909;BME280;10614;53.198;6.570;2023-04-26T05:23:13;101828.91;;;4.19;100.00
20909;BME280;10614;53.198;6.570;2023-04-26T05:25:15;101836.72;;;4.18;100.00
20909;BME280;10614;53.198;6.570;2023-04-26T05:27:19;101828.03;;;4.17;100.00
20909;BME280;10614;53.198;6.570;2023-04-26T05:29:21;101826.31;;;4.15;100.00
20909;BME280;10614;53.198;6.570;2023-04-26T05:31:22;101833.25;;;4.16;100.00
20909;BME280;10614;53.198;6.570;2023-04-26T05:33:24;101834.13;;;4.15;100.00
20909;BME280;10614;53.198;6.570;2023-04-26T05:35:26;101837.59;;;4.15;100.00
20909;BME280;10614;53.198;6.570;2023-04-26T05:37:28;101834.97;;;4.12;100.00
20909;BME280;10614;53.198;6.570;2023-04-26T05:39:30;101844.53;;;4.13;100.00
20909;BME280;10614;53.198;6.570;2023-04-26T05:41:32;101848.00;;;4.12;100.00
20909;BME280;10614;53.198;6.570;2023-04-26T05:43:35;101841.06;;;4.13;100.00
20909;BME280;10614;53.198;6.570;2023-04-26T05:45:37;101844.50;;;4.12;100.00
20909;BME280;10614;53.198;6.570;2023-04-26T05:47:38;101848.00;;;4.14;100.00
20909;BME280;10614;53.198;6.570;2023-04-26T05:49:40;101851.47;;;4.16;100.00
20909;BME280;10614;53.198;6.570;2023-04-26T05:51:44;101850.63;;;4.17;100.00
20909;BME280;10614;53.198;6.570;2023-04-26T05:53:47;101849.75;;;4.19;100.00
20909;BME280;10614;53.198;6.570;2023-04-26T05:55:49;101854.97;;;4.21;100.00
20909;BME280;10614;53.198;6.570;2023-04-26T05:57:50;101859.31;;;4.23;100.00
20909;BME280;10614;53.198;6.570;2023-04-26T05:59:53;101855.84;;;4.28;100.00
20909;BME280;10614;53.198;6.570;2023-04-26T06:01:55;101848.94;;;4.31;100.00
20909;BME280;10614;53.198;6.570;2023-04-26T06:03:57;101853.25;;;4.35;100.00
20909;BME280;10614;53.198;6.570;2023-04-26T06:05:58;101848.06;;;4.38;100.00
20909;BME280;10614;53.198;6.570;2023-04-26T06:08:00;101847.19;;;4.39;100.00
20909;BME280;10614;53.198;6.570;2023-04-26T06:10:01;101848.06;;;4.43;100.00
20909;BME280;10614;53.198;6.570;2023-04-26T06:12:03;101844.56;;;4.47;100.00
20909;BME280;10614;53.198;6.570;2023-04-26T06:14:04;101841.97;;;4.52;100.00
20909;BME280;10614;53.198;6.570;2023-04-26T06:16:08;101844.59;;;4.53;100.00
20909;BME280;10614;53.198;6.570;2023-04-26T06:18:10;101849.81;;;4.58;100.00
20909;BME280;10614;53.198;6.570;2023-04-26T06:20:11;101845.50;;;4.61;100.00
20909;BME280;10614;53.198;6.570;2023-04-26T06:22:13;101849.84;;;4.64;100.00
20909;BME280;10614;53.198;6.570;2023-04-26T06:24:15;101849.81;;;4.67;100.00
20909;BME280;10614;53.198;6.570;2023-04-26T06:26:16;101849.84;;;4.69;100.00
20909;BME280;10614;53.198;6.570;2023-04-26T06:28:18;101843.72;;;4.73;100.00
20909;BME280;10614;53.198;6.570;2023-04-26T06:30:19;101852.44;;;4.76;100.00
20909;BME280;10614;53.198;6.570;2023-04-26T06:32:23;101838.53;;;4.71;100.00
20909;BME280;10614;53.198;6.570;2023-04-26T06:34:25;101856.78;;;4.79;100.00
20909;BME280;10614;53.198;6.570;2023-04-26T06:36:26;101861.13;;;4.80;100.00
20909;BME280;10614;53.198;6.570;2023-04-26T06:38:28;101862.00;;;4.83;100.00
20909;BME280;10614;53.198;6.570;2023-04-26T06:40:29;101856.78;;;4.88;100.00
20909;BME280;10614;53.198;6.570;2023-04-26T06:42:31;101854.19;;;4.93;100.00
20909;BME280;10614;53.198;6.570;2023-04-26T06:44:33;101864.63;;;4.94;100.00
20909;BME280;10614;53.198;6.570;2023-04-26T06:46:34;101860.28;;;4.95;100.00
20909;BME280;10614;53.198;6.570;2023-04-26T06:48:38;101859.41;;;4.97;100.00
20909;BME280;10614;53.198;6.570;2023-04-26T06:50:40;101864.63;;;4.99;100.00
20909;BME280;10614;53.198;6.570;2023-04-26T06:52:41;101860.25;;;5.02;100.00
20909;BME280;10614;53.198;6.570;2023-04-26T06:54:43;101857.66;;;5.07;100.00
20909;BME280;10614;53.198;6.570;2023-04-26T06:56:45;101857.63;;;5.10;100.00
20909;BME280;10614;53.198;6.570;2023-04-26T06:58:56;101862.88;;;5.13;100.00
20909;BME280;10614;53.198;6.570;2023-04-26T07:00:58;101868.09;;;5.18;100.00
20909;BME280;10614;53.198;6.570;2023-04-26T07:03:00;101875.91;;;5.27;100.00
20909;BME280;10614;53.198;6.570;2023-04-26T07:05:03;101875.00;;;5.39;100.00
20909;BME280;10614;53.198;6.570;2023-04-26T07:07:05;101875.88;;;5.38;100.00
20909;BME280;10614;53.198;6.570;2023-04-26T07:09:06;101874.13;;;5.41;100.00
20909;BME280;10614;53.198;6.570;2023-04-26T07:11:08;101873.25;;;5.47;100.00
20909;BME280;10614;53.198;6.570;2023-04-26T07:13:10;101871.50;;;5.49;98.41
20909;BME280;10614;53.198;6.570;2023-04-26T07:15:11;101872.34;;;5.49;98.14
20909;BME280;10614;53.198;6.570;2023-04-26T07:17:13;101868.03;;;5.48;98.03
20909;BME280;10614;53.198;6.570;2023-04-26T07:19:14;101867.13;;;5.49;96.82
20909;BME280;10614;53.198;6.570;2023-04-26T07:21:18;101870.59;;;5.50;98.33
20909;BME280;10614;53.198;6.570;2023-04-26T07:23:19;101867.13;;;5.54;98.27
20909;BME280;10614;53.198;6.570;2023-04-26T07:25:21;101869.75;;;5.54;98.52
20909;BME280;10614;53.198;6.570;2023-04-26T07:27:22;101865.38;;;5.55;99.26
20909;BME280;10614;53.198;6.570;2023-04-26T07:29:24;101865.38;;;5.61;99.70
20909;BME280;10614;53.198;6.570;2023-04-26T07:31:25;101867.97;;;5.64;99.45
20909;BME280;10614;53.198;6.570;2023-04-26T07:33:27;101874.94;;;5.65;99.68
20909;BME280;10614;53.198;6.570;2023-04-26T07:35:28;101873.19;;;5.67;99.77
20909;BME280;10614;53.198;6.570;2023-04-26T07:37:31;101865.38;;;5.67;99.48
20909;BME280;10614;53.198;6.570;2023-04-26T07:39:33;101867.06;;;5.76;98.79
20909;BME280;10614;53.198;6.570;2023-04-26T07:41:34;101859.22;;;5.83;97.21
20909;BME280;10614;53.198;6.570;2023-04-26T07:43:36;101860.94;;;5.84;98.21
20909;BME280;10614;53.198;6.570;2023-04-26T07:45:38;101863.53;;;5.84;97.99
20909;BME280;10614;53.198;6.570;2023-04-26T07:47:39;101861.78;;;5.89;97.39
20909;BME280;10614;53.198;6.570;2023-04-26T07:49:41;101873.09;;;5.93;96.68
20909;BME280;10614;53.198;6.570;2023-04-26T07:51:42;101864.41;;;5.97;96.45
20909;BME280;10614;53.198;6.570;2023-04-26T07:53:46;101867.88;;;6.01;96.50
20909;BME280;10614;53.198;6.570;2023-04-26T07:55:48;101865.22;;;6.04;95.85
20909;BME280;10614;53.198;6.570;2023-04-26T07:57:50;101863.47;;;6.06;96.07
20909;BME280;10614;53.198;6.570;2023-04-26T07:59:52;101874.81;;;6.09;95.53
20909;BME280;10614;53.198;6.570;2023-04-26T08:01:54;101873.03;;;6.13;95.01
20909;BME280;10614;53.198;6.570;2023-04-26T08:03:55;101871.28;;;6.17;94.64
20909;BME280;10614;53.198;6.570;2023-04-26T08:05:57;101882.59;;;6.19;93.62
20909;BME280;10614;53.198;6.570;2023-04-26T08:07:59;101879.91;;;6.29;92.86
20909;BME280;10614;53.198;6.570;2023-04-26T08:10:05;101889.47;;;6.33;92.45
20909;BME280;10614;53.198;6.570;2023-04-26T08:12:07;101879.00;;;6.37;92.72
20909;BME280;10614;53.198;6.570;2023-04-26T08:14:09;101884.19;;;6.43;91.79
20909;BME280;10614;53.198;6.570;2023-04-26T08:16:10;101886.78;;;6.49;91.74
20909;BME280;10614;53.198;6.570;2023-04-26T08:18:12;101883.28;;;6.48;90.61
20909;BME280;10614;53.198;6.570;2023-04-26T08:20:13;101896.38;;;6.47;90.21
20909;BME280;10614;53.198;6.570;2023-04-26T08:22:15;101893.78;;;6.45;90.16
20909;BME280;10614;53.198;6.570;2023-04-26T08:24:16;101888.56;;;6.42;90.90
20909;BME280;10614;53.198;6.570;2023-04-26T08:26:19;101898.16;;;6.39;90.23
20909;BME280;10614;53.198;6.570;2023-04-26T08:28:21;101899.91;;;6.40;90.86
20909;BME280;10614;53.198;6.570;2023-04-26T08:30:22;101899.06;;;6.38;91.00
20909;BME280;10614;53.198;6.570;2023-04-26T08:32:24;101894.69;;;6.37;91.10
20909;BME280;10614;53.198;6.570;2023-04-26T08:34:26;101892.94;;;6.39;91.66
20909;BME280;10614;53.198;6.570;2023-04-26T08:36:28;101904.25;;;6.41;91.44
20909;BME280;10614;53.198;6.570;2023-04-26T08:38:31;101892.94;;;6.42;92.14
20909;BME280;10614;53.198;6.570;2023-04-26T08:40:33;101906.84;;;6.44;91.36
20909;BME280;10614;53.198;6.570;2023-04-26T08:42:38;101901.63;;;6.47;91.46
20909;BME280;10614;53.198;6.570;2023-04-26T08:44:40;101893.75;;;6.51;90.18
20909;BME280;10614;53.198;6.570;2023-04-26T08:46:43;101906.78;;;6.54;90.41
20909;BME280;10614;53.198;6.570;2023-04-26T08:48:48;101910.28;;;6.58;90.00
20909;BME280;10614;53.198;6.570;2023-04-26T08:50:54;101900.59;;;6.65;90.18
20909;BME280;10614;53.198;6.570;2023-04-26T08:52:55;101910.19;;;6.70;86.75
20909;BME280;10614;53.198;6.570;2023-04-26T08:54:58;101904.91;;;6.73;84.78
20909;BME280;10614;53.198;6.570;2023-04-26T08:56:59;101917.13;;;6.78;83.30
20909;BME280;10614;53.198;6.570;2023-04-26T08:59:03;101904.88;;;6.80;83.06
20909;BME280;10614;53.198;6.570;2023-04-26T09:01:05;101904.84;;;6.83;82.66
20909;BME280;10614;53.198;6.570;2023-04-26T09:03:07;101913.56;;;6.86;82.91
20909;BME280;10614;53.198;6.570;2023-04-26T09:05:09;101909.19;;;6.87;83.40
20909;BME280;10614;53.198;6.570;2023-04-26T09:07:12;101912.63;;;6.90;83.95
20909;BME280;10614;53.198;6.570;2023-04-26T09:09:16;101911.72;;;6.97;84.39
20909;BME280;10614;53.198;6.570;2023-04-26T09:11:20;101911.75;;;6.96;84.82
20909;BME280;10614;53.198;6.570;2023-04-26T09:13:26;101918.78;;;6.91;85.37
20909;BME280;10614;53.198;6.570;2023-04-26T09:15:29;101924.00;;;6.91;86.35
20909;BME280;10614;53.198;6.570;2023-04-26T09:17:31;101926.66;;;6.83;87.00
20909;BME280;10614;53.198;6.570;2023-04-26T09:19:33;101918.03;;;6.72;87.62
20909;BME280;10614;53.198;6.570;2023-04-26T09:21:39;101924.16;;;6.66;88.03
20909;BME280;10614;53.198;6.570;2023-04-26T09:23:55;101930.31;;;6.58;89.31
20909;BME280;10614;53.198;6.570;2023-04-26T09:28:20;101932.13;;;6.43;91.65
20909;BME280;10614;53.198;6.570;2023-04-26T09:30:22;101924.31;;;6.39;92.06
20909;BME280;10614;53.198;6.570;2023-04-26T09:32:25;101918.25;;;6.33;92.19
20909;BME280;10614;53.198;6.570;2023-04-26T09:34:28;101928.72;;;6.35;93.50
20909;BME280;10614;53.198;6.570;2023-04-26T09:36:30;101919.09;;;6.36;93.65
20909;BME280;10614;53.198;6.570;2023-04-26T09:38:32;101919.97;;;6.36;93.41
20909;BME280;10614;53.198;6.570;2023-04-26T09:40:43;101919.97;;;6.39;93.17
20909;BME280;10614;53.198;6.570;2023-04-26T09:42:44;101924.28;;;6.45;93.16
20909;BME280;10614;53.198;6.570;2023-04-26T09:44:46;101921.69;;;6.46;92.84
20909;BME280;10614;53.198;6.570;2023-04-26T09:46:58;101919.91;;;6.48;92.17
20909;BME280;10614;53.198;6.570;2023-04-26T09:49:02;101912.91;;;6.53;91.84
20909;BME280;10614;53.198;6.570;2023-04-26T09:51:08;101914.63;;;6.59;90.72
20909;BME280;10614;53.198;6.570;2023-04-26T09:53:11;101919.81;;;6.62;90.90
20909;BME280;10614;53.198;6.570;2023-04-26T09:55:25;101917.19;;;6.65;90.95
20909;BME280;10614;53.198;6.570;2023-04-26T09:57:27;101917.16;;;6.68;90.83
20909;BME280;10614;53.198;6.570;2023-04-26T09:59:37;101919.75;;;6.74;90.27
20909;BME280;10614;53.198;6.570;2023-04-26T10:01:39;101919.72;;;6.76;90.34
20909;BME280;10614;53.198;6.570;2023-04-26T10:03:40;101907.50;;;6.80;89.49
20909;BME280;10614;53.198;6.570;2023-04-26T10:05:44;101911.81;;;6.87;89.73
20909;BME280;10614;53.198;6.570;2023-04-26T10:07:46;101914.38;;;6.93;88.87
20909;BME280;10614;53.198;6.570;2023-04-26T10:09:48;101919.53;;;7.02;87.83
20909;BME280;10614;53.198;6.570;2023-04-26T10:11:50;101920.38;;;7.04;88.19
20909;BME280;10614;53.198;6.570;2023-04-26T10:13:51;101911.66;;;7.05;88.11
20909;BME280;10614;53.198;6.570;2023-04-26T10:15:53;101921.22;;;7.09;88.85
20909;BME280;10614;53.198;6.570;2023-04-26T10:17:55;101923.81;;;7.12;88.63
20909;BME280;10614;53.198;6.570;2023-04-26T10:19:57;101924.69;;;7.11;88.57
20909;BME280;10614;53.198;6.570;2023-04-26T10:22:03;101923.84;;;7.09;88.06
20909;BME280;10614;53.198;6.570;2023-04-26T10:24:05;101923.00;;;7.07;88.31
20909;BME280;10614;53.198;6.570;2023-04-26T10:26:07;101924.72;;;7.08;88.63
20909;BME280;10614;53.198;6.570;2023-04-26T10:30:54;101914.19;;;7.16;89.29
20909;BME280;10614;53.198;6.570;2023-04-26T10:35:16;101908.09;;;7.15;89.34
20909;BME280;10614;53.198;6.570;2023-04-26T10:37:19;101906.28;;;7.21;89.08
20909;BME280;10614;53.198;6.570;2023-04-26T10:39:22;101906.28;;;7.22;88.83
20909;BME280;10614;53.198;6.570;2023-04-26T10:41:30;101908.00;;;7.25;88.96
20909;BME280;10614;53.198;6.570;2023-04-26T10:43:33;101907.06;;;7.30;88.93
20909;BME280;10614;53.198;6.570;2023-04-26T10:45:35;101918.44;;;7.31;88.64
20909;BME280;10614;53.198;6.570;2023-04-26T10:47:37;101924.53;;;7.31;88.22
20909;BME280;10614;53.198;6.570;2023-04-26T10:49:42;101928.06;;;7.27;87.09
20909;BME280;10614;53.198;6.570;2023-04-26T10:54:09;101916.75;;;7.24;85.35